Time;durP1;ratioP1;P1;durP2;ratioP2;P2;SDS_P1;SDS_P2;PMS_P1;PMS_P2;Temp;Humidity;BMP_temperature;BMP_pressure;BME280_temperature;BME280_humidity;BME280_pressure;Samples;Min_cycle;Max_cycle;Signal;HPM_P1;HPM_P2
2022/03/28 00:02:12;;;;;;;25.53;7.10;;;;;;;;;;4933980;28;20303;-72
2022/03/28 00:04:38;;;;;;;22.37;7.13;;;;;;;;;;4951199;28;20215;-73
2022/03/28 00:07:04;;;;;;;30.17;7.27;;;;;;;;;;4934852;28;20700;-72
2022/03/28 00:09:31;;;;;;;36.53;7.33;;;;;;;;;;4950151;28;20258;-74
2022/03/28 00:11:57;;;;;;;42.00;6.50;;;;;;;;;;4966478;28;20328;-71
2022/03/28 00:14:29;;;;;;;28.97;7.03;;;;;;;;;;4966250;28;20230;-73
2022/03/28 00:16:57;;;;;;;26.00;7.40;;;;;;;;;;4950917;28;20227;-73
2022/03/28 00:19:22;;;;;;;43.83;6.77;;;;;;;;;;4950727;28;20223;-72
2022/03/28 00:21:48;;;;;;;25.03;7.17;;;;;;;;;;4950877;28;20233;-74
2022/03/28 00:24:13;;;;;;;36.63;6.83;;;;;;;;;;4950352;28;20234;-73
2022/03/28 00:26:39;;;;;;;36.10;7.30;;;;;;;;;;4966907;28;20218;-72
2022/03/28 00:29:09;;;;;;;11.07;6.80;;;;;;;;;;4919800;28;20230;-73
2022/03/28 00:31:37;;;;;;;17.83;7.63;;;;;;;;;;4936204;29;20233;-72
2022/03/28 00:34:02;;;;;;;31.97;7.33;;;;;;;;;;4966512;28;20243;-72
2022/03/28 00:36:28;;;;;;;11.37;6.70;;;;;;;;;;4951010;28;20310;-73
2022/03/28 00:38:54;;;;;;;20.03;7.50;;;;;;;;;;4954170;28;20649;-73
2022/03/28 00:41:21;;;;;;;38.70;7.43;;;;;;;;;;4938545;28;20215;-73
2022/03/28 00:43:57;;;;;;;24.00;7.00;;;;;;;;;;4935307;28;20234;-73
2022/03/28 00:46:25;;;;;;;8.00;6.20;;;;;;;;;;4951001;28;20234;-73
2022/03/28 00:48:50;;;;;;;12.17;5.07;;;;;;;;;;4951313;28;20604;-73
2022/03/28 00:51:21;;;;;;;13.63;5.60;;;;;;;;;;4950573;28;20231;-73
2022/03/28 00:53:46;;;;;;;22.07;6.53;;;;;;;;;;4934944;28;20310;-73
2022/03/28 00:56:14;;;;;;;14.83;6.47;;;;;;;;;;4945553;28;20245;-74
2022/03/28 00:58:42;;;;;;;18.60;7.00;;;;;;;;;;4950861;28;20308;-74
2022/03/28 01:01:09;;;;;;;17.87;6.43;;;;;;;;;;4939231;28;20776;-72
2022/03/28 01:03:38;;;;;;;10.57;6.50;;;;;;;;;;4969948;28;20808;-73
2022/03/28 01:06:08;;;;;;;40.43;6.93;;;;;;;;;;4951215;28;20235;-73
2022/03/28 01:08:36;;;;;;;18.43;5.27;;;;;;;;;;4968182;28;20282;-73
2022/03/28 01:11:04;;;;;;;15.13;6.07;;;;;;;;;;4968690;28;20234;-73
2022/03/28 01:13:34;;;;;;;13.60;5.53;;;;;;;;;;4953422;28;20297;-73
2022/03/28 01:16:02;;;;;;;13.17;5.67;;;;;;;;;;4952445;28;20285;-74
2022/03/28 01:18:30;;;;;;;22.93;5.50;;;;;;;;;;4939462;29;20254;-73
2022/03/28 01:20:58;;;;;;;11.63;6.67;;;;;;;;;;4970477;28;20286;-73
2022/03/28 01:23:26;;;;;;;21.17;5.30;;;;;;;;;;4938000;28;20301;-73
2022/03/28 01:25:52;;;;;;;18.70;5.63;;;;;;;;;;4971209;28;20227;-74
2022/03/28 01:28:27;;;;;;;8.17;5.03;;;;;;;;;;4956172;28;20218;-74
2022/03/28 01:30:54;;;;;;;12.20;5.40;;;;;;;;;;4949213;29;20227;-74
2022/03/28 01:33:24;;;;;;;16.17;4.90;;;;;;;;;;4952892;28;20712;-74
2022/03/28 01:35:51;;;;;;;12.20;6.17;;;;;;;;;;4938489;28;20227;-73
2022/03/28 01:38:22;;;;;;;25.73;5.30;;;;;;;;;;4952307;28;20231;-73
2022/03/28 01:40:53;;;;;;;11.87;5.07;;;;;;;;;;4954372;28;20214;-73
2022/03/28 01:43:21;;;;;;;8.67;4.67;;;;;;;;;;4936758;28;20225;-74
2022/03/28 01:45:46;;;;;;;17.40;4.93;;;;;;;;;;4939900;29;20359;-73
2022/03/28 01:48:14;;;;;;;10.67;5.10;;;;;;;;;;4968472;28;20222;-73
2022/03/28 01:50:42;;;;;;;19.90;4.70;;;;;;;;;;4954134;28;20245;-72
2022/03/28 01:53:08;;;;;;;21.50;4.87;;;;;;;;;;4952714;28;20257;-72
2022/03/28 01:55:33;;;;;;;16.57;4.80;;;;;;;;;;4938987;29;20603;-75
2022/03/28 01:58:01;;;;;;;16.00;4.07;;;;;;;;;;4957210;28;20310;-73
2022/03/28 02:00:28;;;;;;;36.67;4.90;;;;;;;;;;4968687;28;20215;-73
2022/03/28 02:02:54;;;;;;;10.10;3.80;;;;;;;;;;4953027;28;20281;-73
2022/03/28 02:05:20;;;;;;;6.93;3.80;;;;;;;;;;4937499;28;20230;-73
2022/03/28 02:07:47;;;;;;;10.57;4.10;;;;;;;;;;4953112;28;20314;-73
2022/03/28 02:10:14;;;;;;;11.10;4.23;;;;;;;;;;4969196;28;20314;-72
2022/03/28 02:12:42;;;;;;;32.00;5.43;;;;;;;;;;4952749;29;20715;-72
2022/03/28 02:15:13;;;;;;;12.60;5.80;;;;;;;;;;4937205;28;20258;-73
2022/03/28 02:17:41;;;;;;;34.60;6.23;;;;;;;;;;4938417;28;20632;-73
2022/03/28 02:20:10;;;;;;;21.90;6.57;;;;;;;;;;4952490;28;20274;-74
2022/03/28 02:22:36;;;;;;;65.67;6.80;;;;;;;;;;4952024;28;20231;-73
2022/03/28 02:25:05;;;;;;;76.07;7.30;;;;;;;;;;4970166;28;20334;-72
2022/03/28 02:27:35;;;;;;;38.77;7.03;;;;;;;;;;4940881;28;20306;-73
2022/03/28 02:30:02;;;;;;;74.30;7.70;;;;;;;;;;4968214;28;20231;-71
2022/03/28 02:32:29;;;;;;;29.83;6.20;;;;;;;;;;4952809;28;20297;-73
2022/03/28 02:35:02;;;;;;;52.23;7.40;;;;;;;;;;4968233;28;20277;-72
2022/03/28 02:37:28;;;;;;;43.43;6.50;;;;;;;;;;4952137;28;20793;-72
2022/03/28 02:39:54;;;;;;;29.67;6.57;;;;;;;;;;4952863;28;20219;-73
2022/03/28 02:42:22;;;;;;;37.50;6.93;;;;;;;;;;4951935;28;20227;-73
2022/03/28 02:44:51;;;;;;;45.77;7.00;;;;;;;;;;4968020;28;20246;-73
2022/03/28 02:47:21;;;;;;;45.80;7.03;;;;;;;;;;4967817;28;20233;-73
2022/03/28 02:49:50;;;;;;;21.03;6.70;;;;;;;;;;4968101;28;20238;-72
2022/03/28 02:52:15;;;;;;;32.87;7.30;;;;;;;;;;4953154;28;20226;-73
2022/03/28 02:54:44;;;;;;;46.83;7.53;;;;;;;;;;4952757;28;20760;-74
2022/03/28 02:57:14;;;;;;;52.60;7.40;;;;;;;;;;4955720;28;20289;-73
2022/03/28 02:59:40;;;;;;;19.40;6.80;;;;;;;;;;4920366;29;20289;-72
2022/03/28 03:02:05;;;;;;;47.33;7.00;;;;;;;;;;4968996;28;20310;-73
2022/03/28 03:04:34;;;;;;;41.40;7.17;;;;;;;;;;4934895;28;20231;-73
2022/03/28 03:06:59;;;;;;;34.57;6.50;;;;;;;;;;4968256;28;20282;-72
2022/03/28 03:09:25;;;;;;;30.73;6.00;;;;;;;;;;4951399;28;20290;-72
2022/03/28 03:11:51;;;;;;;22.77;6.70;;;;;;;;;;4951877;28;20219;-73
2022/03/28 03:14:19;;;;;;;17.73;5.63;;;;;;;;;;4938159;28;20229;-73
2022/03/28 03:16:44;;;;;;;25.37;6.17;;;;;;;;;;4967928;28;20231;-73
2022/03/28 03:19:10;;;;;;;19.30;5.43;;;;;;;;;;4951268;28;20229;-73
2022/03/28 03:21:36;;;;;;;19.33;5.60;;;;;;;;;;4955347;28;20751;-73
2022/03/28 03:24:01;;;;;;;25.50;5.17;;;;;;;;;;4949481;28;20214;-74
2022/03/28 03:26:27;;;;;;;18.90;5.40;;;;;;;;;;4967986;28;20640;-72
2022/03/28 03:28:55;;;;;;;17.20;5.80;;;;;;;;;;4954621;28;20215;-73
2022/03/28 03:31:24;;;;;;;13.50;5.07;;;;;;;;;;4956955;28;20223;-73
2022/03/28 03:33:49;;;;;;;12.00;4.07;;;;;;;;;;4952718;28;20231;-72
2022/03/28 03:36:19;;;;;;;10.43;3.37;;;;;;;;;;4940034;28;20278;-72
2022/03/28 03:38:47;;;;;;;12.97;3.80;;;;;;;;;;4954612;28;20330;-74
2022/03/28 03:41:15;;;;;;;7.60;3.13;;;;;;;;;;4937315;28;20218;-73
2022/03/28 03:43:48;;;;;;;8.43;3.00;;;;;;;;;;4936853;29;20227;-72
2022/03/28 03:46:18;;;;;;;5.77;2.80;;;;;;;;;;4968513;28;20221;-73
2022/03/28 03:48:46;;;;;;;8.07;2.67;;;;;;;;;;4966494;28;20590;-73
2022/03/28 03:51:13;;;;;;;11.97;3.03;;;;;;;;;;4953430;28;20237;-73
2022/03/28 03:53:40;;;;;;;10.07;3.40;;;;;;;;;;4951589;28;20246;-72
2022/03/28 03:56:06;;;;;;;9.77;3.23;;;;;;;;;;4936381;28;20249;-74
2022/03/28 03:58:34;;;;;;;7.47;2.63;;;;;;;;;;4968212;28;20286;-71
2022/03/28 04:00:59;;;;;;;10.43;3.30;;;;;;;;;;4956311;28;20223;-74
2022/03/28 04:03:29;;;;;;;6.97;3.20;;;;;;;;;;4950478;28;20668;-72
2022/03/28 04:05:57;;;;;;;12.33;3.27;;;;;;;;;;4938488;29;20223;-74
2022/03/28 04:08:23;;;;;;;12.87;3.70;;;;;;;;;;4950855;28;20285;-73
2022/03/28 04:10:48;;;;;;;14.57;3.80;;;;;;;;;;4967620;28;20313;-73
2022/03/28 04:13:16;;;;;;;10.83;3.67;;;;;;;;;;4918883;28;20313;-73
2022/03/28 04:15:43;;;;;;;7.50;4.03;;;;;;;;;;4971120;28;20238;-73
2022/03/28 04:18:09;;;;;;;11.90;3.93;;;;;;;;;;4945385;28;20237;-74
2022/03/28 04:20:35;;;;;;;10.43;3.67;;;;;;;;;;4956549;28;20219;-74
2022/03/28 04:23:01;;;;;;;12.70;4.37;;;;;;;;;;4926138;28;20367;-72
2022/03/28 04:25:26;;;;;;;9.23;4.20;;;;;;;;;;4955895;28;20727;-72
2022/03/28 04:27:52;;;;;;;11.30;4.47;;;;;;;;;;4940527;28;20215;-73
2022/03/28 04:30:24;;;;;;;10.97;4.40;;;;;;;;;;4955576;28;20218;-73
2022/03/28 04:32:49;;;;;;;16.20;4.60;;;;;;;;;;4961515;28;20227;-73
2022/03/28 04:35:19;;;;;;;10.13;4.03;;;;;;;;;;4942921;28;20222;-73
2022/03/28 04:37:49;;;;;;;13.53;5.20;;;;;;;;;;4974703;28;20907;-73
2022/03/28 04:40:17;;;;;;;16.10;4.97;;;;;;;;;;4943703;28;20219;-74
2022/03/28 04:42:44;;;;;;;17.10;6.20;;;;;;;;;;4956039;28;20237;-74
2022/03/28 04:45:09;;;;;;;11.27;5.30;;;;;;;;;;4940863;28;20700;-74
2022/03/28 04:47:35;;;;;;;12.07;5.17;;;;;;;;;;4957781;28;20230;-73
2022/03/28 04:50:03;;;;;;;12.80;5.80;;;;;;;;;;4957668;28;20936;-74
2022/03/28 04:52:29;;;;;;;13.60;5.60;;;;;;;;;;4954307;28;20270;-74
2022/03/28 04:54:54;;;;;;;11.43;5.70;;;;;;;;;;4941165;28;20229;-73
2022/03/28 04:57:20;;;;;;;14.87;6.03;;;;;;;;;;4939804;28;20234;-74
2022/03/28 04:59:45;;;;;;;15.13;6.60;;;;;;;;;;4956098;28;20301;-74
2022/03/28 05:02:11;;;;;;;12.97;6.83;;;;;;;;;;4970591;28;20254;-73
2022/03/28 05:04:36;;;;;;;12.10;6.50;;;;;;;;;;4939920;29;20226;-73
2022/03/28 05:07:04;;;;;;;12.67;6.70;;;;;;;;;;4971385;28;20226;-76
2022/03/28 05:09:32;;;;;;;14.17;6.67;;;;;;;;;;4956245;28;20265;-73
2022/03/28 05:11:58;;;;;;;16.77;7.87;;;;;;;;;;4955213;28;20644;-74
2022/03/28 05:14:24;;;;;;;14.90;7.00;;;;;;;;;;4938265;28;20223;-73
2022/03/28 05:16:49;;;;;;;15.07;7.77;;;;;;;;;;4972907;28;20233;-73
2022/03/28 05:19:15;;;;;;;17.17;8.30;;;;;;;;;;4904027;28;20301;-75
2022/03/28 05:21:41;;;;;;;14.60;8.00;;;;;;;;;;4931326;28;20238;-74
2022/03/28 05:24:07;;;;;;;12.67;6.93;;;;;;;;;;4953474;28;20237;-74
2022/03/28 05:26:33;;;;;;;13.07;7.67;;;;;;;;;;4938452;28;20222;-73
2022/03/28 05:29:01;;;;;;;12.87;7.17;;;;;;;;;;4957210;28;20301;-73
2022/03/28 05:31:27;;;;;;;14.47;7.37;;;;;;;;;;4955545;28;20318;-74
2022/03/28 05:33:52;;;;;;;15.03;7.77;;;;;;;;;;4956991;28;20705;-74
2022/03/28 05:36:20;;;;;;;19.07;9.10;;;;;;;;;;4947611;28;20226;-75
2022/03/28 05:38:46;;;;;;;15.83;8.73;;;;;;;;;;4929952;28;20444;-74
2022/03/28 05:41:11;;;;;;;20.20;9.37;;;;;;;;;;4955052;28;21150;-76
2022/03/28 05:43:37;;;;;;;17.73;8.73;;;;;;;;;;4956527;28;20584;-75
2022/03/28 05:46:03;;;;;;;24.73;8.60;;;;;;;;;;4971893;28;20258;-74
2022/03/28 05:48:31;;;;;;;29.23;8.17;;;;;;;;;;4938594;28;20215;-74
2022/03/28 05:50:59;;;;;;;26.63;7.80;;;;;;;;;;4962759;28;20306;-74
2022/03/28 05:53:25;;;;;;;15.23;8.07;;;;;;;;;;4923004;28;20306;-75
2022/03/28 05:55:53;;;;;;;15.80;8.07;;;;;;;;;;4955185;28;20230;-75
2022/03/28 05:58:21;;;;;;;16.67;7.67;;;;;;;;;;4972511;28;20705;-74
2022/03/28 06:00:47;;;;;;;14.73;8.47;;;;;;;;;;4958901;28;20231;-74
2022/03/28 06:03:12;;;;;;;14.07;7.90;;;;;;;;;;4979691;28;20238;-76
2022/03/28 06:05:38;;;;;;;22.20;8.60;;;;;;;;;;4962237;28;20223;-75
2022/03/28 06:08:04;;;;;;;14.60;8.20;;;;;;;;;;4959029;28;20246;-73
2022/03/28 06:10:33;;;;;;;17.03;7.77;;;;;;;;;;4959553;28;20234;-74
2022/03/28 06:12:59;;;;;;;19.43;7.60;;;;;;;;;;4943948;28;20230;-73
2022/03/28 06:15:24;;;;;;;13.30;7.13;;;;;;;;;;4959184;28;20595;-74
2022/03/28 06:17:53;;;;;;;17.07;7.60;;;;;;;;;;4958732;28;20231;-75
2022/03/28 06:20:19;;;;;;;17.20;7.53;;;;;;;;;;4942761;28;20223;-74
2022/03/28 06:22:45;;;;;;;13.10;7.17;;;;;;;;;;4957984;28;20242;-75
2022/03/28 06:25:11;;;;;;;14.17;7.00;;;;;;;;;;4964351;28;20214;-75
2022/03/28 06:27:42;;;;;;;15.77;9.07;;;;;;;;;;4976692;28;20226;-74
2022/03/28 06:30:11;;;;;;;15.33;8.00;;;;;;;;;;4968597;28;20224;-75
2022/03/28 06:32:40;;;;;;;13.93;6.67;;;;;;;;;;4960251;28;20231;-75
2022/03/28 06:35:07;;;;;;;12.77;6.77;;;;;;;;;;4944893;28;20844;-76
2022/03/28 06:37:36;;;;;;;11.67;6.10;;;;;;;;;;4977105;28;20297;-76
2022/03/28 06:40:03;;;;;;;10.77;6.10;;;;;;;;;;4945282;29;20233;-75
2022/03/28 06:42:31;;;;;;;13.70;5.77;;;;;;;;;;4960318;28;20242;-76
2022/03/28 06:44:57;;;;;;;10.57;5.78;;;;;;;;;;4957689;28;20378;-76
2022/03/28 06:47:25;;;;;;;12.83;5.70;;;;;;;;;;4965541;28;20215;-77
2022/03/28 06:49:51;;;;;;;12.03;5.40;;;;;;;;;;4960887;28;20598;-75
2022/03/28 06:52:50;;;;;;;;;;;;;;;;;;;;;
2022/03/28 06:55:16;;;;;;;10.30;5.73;;;;;;;;;;4946111;28;20226;-77
2022/03/28 06:57:51;;;;;;;9.63;5.53;;;;;;;;;;4968763;28;20222;-77
2022/03/28 07:00:17;;;;;;;10.07;5.47;;;;;;;;;;4947048;28;20253;-77
2022/03/28 07:03:07;;;;;;;9.90;6.00;;;;;;;;;;4962572;28;20218;-77
2022/03/28 07:05:44;;;;;;;8.70;5.37;;;;;;;;;;4975582;28;20218;-78
2022/03/28 07:08:13;;;;;;;7.60;5.07;;;;;;;;;;4928925;28;20282;-75
2022/03/28 07:10:38;;;;;;;8.07;4.87;;;;;;;;;;4959369;28;20219;-75
2022/03/28 07:16:11;;;;;;;8.00;4.30;;;;;;;;;;4948020;28;20222;-77
2022/03/28 07:18:37;;;;;;;6.37;3.93;;;;;;;;;;4958770;28;20251;-75
2022/03/28 07:21:06;;;;;;;7.23;4.53;;;;;;;;;;4957584;28;20432;-76
2022/03/28 07:23:31;;;;;;;5.83;3.87;;;;;;;;;;4959349;28;20261;-76
2022/03/28 07:25:57;;;;;;;5.77;3.70;;;;;;;;;;4944391;29;20264;-76
2022/03/28 07:28:25;;;;;;;5.20;3.27;;;;;;;;;;4957626;28;20227;-76
2022/03/28 07:30:55;;;;;;;4.53;3.07;;;;;;;;;;4944376;28;20223;-76
2022/03/28 07:33:21;;;;;;;5.00;3.30;;;;;;;;;;4957637;28;20223;-76
2022/03/28 07:35:49;;;;;;;3.93;3.00;;;;;;;;;;4960313;28;20309;-76
2022/03/28 07:38:17;;;;;;;4.90;2.97;;;;;;;;;;4958093;28;20250;-74
2022/03/28 07:40:45;;;;;;;4.03;2.50;;;;;;;;;;4967101;28;20694;-76
2022/03/28 07:43:12;;;;;;;3.00;2.30;;;;;;;;;;4954866;28;20238;-75
2022/03/28 07:45:40;;;;;;;4.20;2.57;;;;;;;;;;4957208;28;20223;-75
2022/03/28 07:48:08;;;;;;;3.63;2.50;;;;;;;;;;4955109;28;20238;-76
2022/03/28 07:50:34;;;;;;;4.00;3.03;;;;;;;;;;4942704;28;20309;-77
2022/03/28 07:53:00;;;;;;;3.07;2.60;;;;;;;;;;4957794;28;20231;-76
2022/03/28 07:55:27;;;;;;;2.00;1.63;;;;;;;;;;4959142;28;20330;-76
2022/03/28 07:57:53;;;;;;;2.80;1.80;;;;;;;;;;4941830;29;20700;-78
2022/03/28 08:00:19;;;;;;;3.83;2.30;;;;;;;;;;4958453;28;20219;-77
2022/03/28 08:02:47;;;;;;;2.37;1.97;;;;;;;;;;4975164;28;20233;-76
2022/03/28 08:05:18;;;;;;;3.57;2.03;;;;;;;;;;4965732;28;20735;-77
2022/03/28 08:07:44;;;;;;;3.40;2.10;;;;;;;;;;4963235;28;20218;-77
2022/03/28 08:10:13;;;;;;;3.80;2.33;;;;;;;;;;4964294;28;20245;-76
2022/03/28 08:12:38;;;;;;;2.20;1.87;;;;;;;;;;4957163;28;20222;-77
2022/03/28 08:15:06;;;;;;;2.13;1.90;;;;;;;;;;4955467;28;20215;-77
2022/03/28 08:17:37;;;;;;;2.50;2.10;;;;;;;;;;4974675;28;20638;-76
2022/03/28 08:20:09;;;;;;;2.93;2.40;;;;;;;;;;4976000;28;20709;-77
2022/03/28 08:22:44;;;;;;;2.70;2.03;;;;;;;;;;4975046;28;20238;-78
2022/03/28 08:25:09;;;;;;;2.30;2.10;;;;;;;;;;4981971;28;20273;-78
2022/03/28 08:27:35;;;;;;;2.73;1.97;;;;;;;;;;4965901;28;20215;-78
2022/03/28 08:30:03;;;;;;;2.20;1.90;;;;;;;;;;4964062;28;20229;-77
2022/03/28 08:32:29;;;;;;;2.17;1.67;;;;;;;;;;4932904;29;20317;-76
2022/03/28 08:34:55;;;;;;;1.87;1.50;;;;;;;;;;4947052;29;20242;-77
2022/03/28 08:37:21;;;;;;;2.33;1.80;;;;;;;;;;4983117;28;20238;-77
2022/03/28 08:39:54;;;;;;;2.00;1.80;;;;;;;;;;4982334;28;20223;-76
2022/03/28 08:42:20;;;;;;;1.90;1.70;;;;;;;;;;4961802;28;20233;-77
2022/03/28 08:44:48;;;;;;;2.30;1.93;;;;;;;;;;4960785;28;20223;-77
2022/03/28 08:47:20;;;;;;;2.00;1.80;;;;;;;;;;4943774;28;20239;-77
2022/03/28 08:49:55;;;;;;;2.70;2.00;;;;;;;;;;4979853;28;20916;-78
2022/03/28 08:52:21;;;;;;;2.33;2.13;;;;;;;;;;4949199;28;20259;-77
2022/03/28 08:54:47;;;;;;;2.43;2.20;;;;;;;;;;4965376;28;20229;-77
2022/03/28 08:57:13;;;;;;;2.30;2.10;;;;;;;;;;4961828;28;20235;-77
2022/03/28 08:59:41;;;;;;;2.87;2.40;;;;;;;;;;4946488;28;20222;-78
2022/03/28 09:02:50;;;;;;;2.80;2.47;;;;;;;;;;4958003;28;20250;-76
2022/03/28 09:05:17;;;;;;;2.57;2.37;;;;;;;;;;4957692;28;20253;-77
2022/03/28 09:07:43;;;;;;;2.37;2.10;;;;;;;;;;4973186;28;20301;-79
2022/03/28 09:10:12;;;;;;;3.23;2.67;;;;;;;;;;4957301;28;20392;-78
2022/03/28 09:12:58;;;;;;;3.27;2.70;;;;;;;;;;4956941;28;20241;-77
2022/03/28 09:15:26;;;;;;;2.47;2.10;;;;;;;;;;4960347;28;20306;-77
2022/03/28 09:17:56;;;;;;;2.57;2.33;;;;;;;;;;4930235;29;20301;-77
2022/03/28 09:20:25;;;;;;;3.40;3.10;;;;;;;;;;4961241;28;20232;-76
2022/03/28 09:22:51;;;;;;;2.40;2.20;;;;;;;;;;4959335;28;20233;-76
2022/03/28 09:25:18;;;;;;;3.00;2.57;;;;;;;;;;4959388;28;20250;-77
2022/03/28 09:27:44;;;;;;;2.90;2.50;;;;;;;;;;4976818;28;20223;-77
2022/03/28 09:30:10;;;;;;;3.23;2.67;;;;;;;;;;4958174;28;20227;-77
2022/03/28 09:32:37;;;;;;;3.20;2.90;;;;;;;;;;4972673;28;20641;-77
2022/03/28 09:35:13;;;;;;;3.03;2.73;;;;;;;;;;4959083;28;20234;-77
2022/03/28 09:38:04;;;;;;;3.30;2.80;;;;;;;;;;4958034;28;20742;-77
2022/03/28 09:40:56;;;;;;;3.10;2.77;;;;;;;;;;4953202;28;20226;-76
2022/03/28 09:43:29;;;;;;;3.50;2.90;;;;;;;;;;4955556;28;20223;-78
2022/03/28 09:45:58;;;;;;;3.27;2.73;;;;;;;;;;4970980;28;20226;-80
2022/03/28 09:48:27;;;;;;;4.87;3.33;;;;;;;;;;4940283;28;20225;-75
2022/03/28 09:50:57;;;;;;;3.07;2.77;;;;;;;;;;4955076;28;20227;-75
2022/03/28 09:53:31;;;;;;;4.37;3.20;;;;;;;;;;4953654;28;20227;-75
2022/03/28 09:56:04;;;;;;;3.00;2.67;;;;;;;;;;4940626;28;20221;-75
2022/03/28 09:58:48;;;;;;;16.20;12.67;;;;;;;;;;4921624;29;20250;-74
2022/03/28 10:01:23;;;;;;;16.70;13.93;;;;;;;;;;4955939;28;20226;-75
2022/03/28 10:03:52;;;;;;;8.77;6.50;;;;;;;;;;4973759;28;20285;-75
2022/03/28 10:06:17;;;;;;;4.23;3.83;;;;;;;;;;4953852;28;20223;-74
2022/03/28 10:08:43;;;;;;;3.60;3.10;;;;;;;;;;4956426;28;20215;-75
2022/03/28 10:11:11;;;;;;;2.93;2.63;;;;;;;;;;4955822;28;20270;-73
2022/03/28 10:13:37;;;;;;;7.43;6.60;;;;;;;;;;4953981;28;20282;-74
2022/03/28 10:16:05;;;;;;;6.83;6.13;;;;;;;;;;4955816;28;20507;-74
2022/03/28 10:18:35;;;;;;;3.80;2.37;;;;;;;;;;4969560;28;20231;-74
2022/03/28 10:21:08;;;;;;;5.27;4.30;;;;;;;;;;4952496;28;20293;-74
2022/03/28 10:23:46;;;;;;;3.10;2.73;;;;;;;;;;4954189;28;20317;-75
2022/03/28 10:26:12;;;;;;;2.50;2.30;;;;;;;;;;4952820;28;20228;-75
2022/03/28 10:28:37;;;;;;;2.10;2.00;;;;;;;;;;4939757;28;20219;-75
2022/03/28 10:31:14;;;;;;;2.50;2.30;;;;;;;;;;4963184;28;20237;-74
2022/03/28 10:33:51;;;;;;;2.40;2.20;;;;;;;;;;4949191;29;20237;-76
2022/03/28 10:36:30;;;;;;;8.17;7.37;;;;;;;;;;4965990;28;20293;-75
2022/03/28 10:39:30;;;;;;;3.50;3.20;;;;;;;;;;4948352;28;20226;-75
2022/03/28 10:42:16;;;;;;;3.17;2.80;;;;;;;;;;4966370;28;20227;-76
2022/03/28 10:45:18;;;;;;;3.73;3.43;;;;;;;;;;4974558;28;20233;-75
2022/03/28 10:47:54;;;;;;;5.77;5.27;;;;;;;;;;4970344;28;20881;-75
2022/03/28 10:50:21;;;;;;;3.50;3.20;;;;;;;;;;4954427;28;20250;-75
2022/03/28 10:53:09;;;;;;;3.77;3.47;;;;;;;;;;4955617;28;20226;-76
2022/03/28 10:55:43;;;;;;;4.93;4.43;;;;;;;;;;4969359;28;20222;-76
2022/03/28 10:58:24;;;;;;;3.60;3.30;;;;;;;;;;4951879;28;20266;-75
2022/03/28 11:01:09;;;;;;;5.00;4.50;;;;;;;;;;4935103;28;20716;-75
2022/03/28 11:03:44;;;;;;;3.87;3.57;;;;;;;;;;4970050;28;20234;-79
2022/03/28 11:06:10;;;;;;;3.27;2.77;;;;;;;;;;4951703;28;20712;-76
2022/03/28 11:08:37;;;;;;;3.43;3.03;;;;;;;;;;4953791;28;20305;-75
2022/03/28 11:11:33;;;;;;;3.20;2.90;;;;;;;;;;4968849;28;20249;-74
2022/03/28 11:14:06;;;;;;;3.33;3.00;;;;;;;;;;4948497;28;20298;-73
2022/03/28 11:16:50;;;;;;;3.47;3.17;;;;;;;;;;4936458;28;20219;-75
2022/03/28 11:19:29;;;;;;;3.03;2.63;;;;;;;;;;4937442;28;20319;-74
2022/03/28 11:22:04;;;;;;;2.90;2.60;;;;;;;;;;4954312;28;20219;-75
2022/03/28 11:24:45;;;;;;;3.03;2.73;;;;;;;;;;4967147;28;20233;-74
2022/03/28 11:27:11;;;;;;;2.80;2.60;;;;;;;;;;4968990;28;20214;-75
2022/03/28 11:29:37;;;;;;;2.97;2.73;;;;;;;;;;4940444;29;20625;-75
2022/03/28 11:32:27;;;;;;;3.03;2.73;;;;;;;;;;4958135;28;20242;-74
2022/03/28 11:35:09;;;;;;;3.47;3.10;;;;;;;;;;4955266;28;20290;-75
2022/03/28 11:37:50;;;;;;;3.23;2.93;;;;;;;;;;4941426;28;20242;-79
2022/03/28 11:40:15;;;;;;;3.20;2.90;;;;;;;;;;4953229;28;20314;-75
2022/03/28 11:42:45;;;;;;;3.40;2.93;;;;;;;;;;4953402;28;20280;-74
2022/03/28 11:45:18;;;;;;;4.27;3.87;;;;;;;;;;4966180;28;20218;-73
2022/03/28 11:47:50;;;;;;;6.47;3.13;;;;;;;;;;4953742;28;20258;-75
2022/03/28 11:50:19;;;;;;;3.60;3.30;;;;;;;;;;4968883;28;20704;-74
2022/03/28 11:52:50;;;;;;;3.30;3.00;;;;;;;;;;4971658;28;20235;-73
2022/03/28 11:55:29;;;;;;;4.17;3.50;;;;;;;;;;4961513;28;20226;-74
2022/03/28 12:00:40;;;;;;;4.47;3.90;;;;;;;;;;4973495;28;20226;-74
2022/03/28 12:03:08;;;;;;;3.70;3.13;;;;;;;;;;4979852;28;20222;-73
2022/03/28 12:05:51;;;;;;;4.83;4.20;;;;;;;;;;4963829;28;20222;-73
2022/03/28 12:08:19;;;;;;;5.83;4.17;;;;;;;;;;4962440;28;20219;-75
2022/03/28 12:10:52;;;;;;;4.53;3.60;;;;;;;;;;4951566;28;20231;-73
2022/03/28 12:13:23;;;;;;;6.17;4.90;;;;;;;;;;4978484;28;20222;-76
2022/03/28 12:15:52;;;;;;;5.47;4.10;;;;;;;;;;4960105;28;20233;-73
2022/03/28 12:18:19;;;;;;;6.07;4.90;;;;;;;;;;4969837;28;20230;-74
2022/03/28 12:20:51;;;;;;;4.60;4.20;;;;;;;;;;4951796;28;20579;-75
2022/03/28 12:23:19;;;;;;;4.30;3.90;;;;;;;;;;4949882;28;20226;-74
2022/03/28 12:25:48;;;;;;;3.90;3.60;;;;;;;;;;4951742;28;20218;-72
2022/03/28 12:28:17;;;;;;;5.47;4.00;;;;;;;;;;4937156;28;20226;-74
2022/03/28 12:30:44;;;;;;;4.57;4.17;;;;;;;;;;4936070;28;20646;-74
2022/03/28 12:33:13;;;;;;;4.80;4.30;;;;;;;;;;4968057;28;20224;-75
2022/03/28 12:35:40;;;;;;;4.17;3.77;;;;;;;;;;4964862;28;20227;-74
2022/03/28 12:38:07;;;;;;;7.33;4.60;;;;;;;;;;4951538;28;20239;-74
2022/03/28 12:40:36;;;;;;;3.90;3.60;;;;;;;;;;4948832;28;20227;-75
2022/03/28 12:43:04;;;;;;;8.13;5.13;;;;;;;;;;4949280;28;20285;-74
2022/03/28 12:45:32;;;;;;;5.83;4.80;;;;;;;;;;4951051;28;20219;-75
2022/03/28 12:48:11;;;;;;;7.03;5.23;;;;;;;;;;4951271;28;20235;-74
2022/03/28 12:50:56;;;;;;;4.37;3.97;;;;;;;;;;4965369;28;20242;-73
2022/03/28 12:53:28;;;;;;;8.50;6.47;;;;;;;;;;4950528;28;20223;-74
2022/03/28 12:55:55;;;;;;;4.43;4.03;;;;;;;;;;4936467;29;20227;-74
2022/03/28 12:58:33;;;;;;;4.53;4.10;;;;;;;;;;4935068;28;20241;-73
2022/03/28 13:01:03;;;;;;;4.53;4.13;;;;;;;;;;4951956;28;20214;-74
2022/03/28 13:03:29;;;;;;;4.83;4.17;;;;;;;;;;4966779;28;20222;-75
2022/03/28 13:06:08;;;;;;;5.30;4.80;;;;;;;;;;4957819;28;20439;-75
2022/03/28 13:08:35;;;;;;;5.70;5.10;;;;;;;;;;4954706;28;20254;-75
2022/03/28 13:11:20;;;;;;;4.67;4.27;;;;;;;;;;4954039;28;20287;-74
2022/03/28 13:13:47;;;;;;;4.60;4.20;;;;;;;;;;4970993;28;20318;-73
2022/03/28 13:16:20;;;;;;;4.77;4.30;;;;;;;;;;4972807;28;20226;-75
2022/03/28 13:19:04;;;;;;;4.40;4.00;;;;;;;;;;4971691;28;20242;-74
2022/03/28 13:21:40;;;;;;;6.67;5.20;;;;;;;;;;4936939;28;20322;-75
2022/03/28 13:24:13;;;;;;;6.87;5.70;;;;;;;;;;4941857;28;20226;-75
2022/03/28 13:26:48;;;;;;;4.80;4.30;;;;;;;;;;4960335;28;20242;-74
2022/03/28 13:29:21;;;;;;;4.90;4.50;;;;;;;;;;4958810;28;20226;-74
2022/03/28 13:31:47;;;;;;;4.90;4.50;;;;;;;;;;4967557;28;20441;-74
2022/03/28 13:34:28;;;;;;;5.07;4.63;;;;;;;;;;4955450;28;20227;-74
2022/03/28 13:36:54;;;;;;;5.33;4.83;;;;;;;;;;4955865;28;20231;-74
2022/03/28 13:39:20;;;;;;;4.87;4.47;;;;;;;;;;4955058;28;20242;-74
2022/03/28 13:41:45;;;;;;;5.27;4.77;;;;;;;;;;4954363;28;20685;-74
2022/03/28 13:44:13;;;;;;;5.03;4.53;;;;;;;;;;4969077;28;20790;-74
2022/03/28 13:46:38;;;;;;;5.93;5.03;;;;;;;;;;4939827;29;20309;-74
2022/03/28 13:49:09;;;;;;;5.23;4.80;;;;;;;;;;4938909;28;20294;-74
2022/03/28 13:51:34;;;;;;;5.00;4.60;;;;;;;;;;4943902;28;20227;-74
2022/03/28 13:54:00;;;;;;;5.27;4.70;;;;;;;;;;4942864;28;20234;-74
2022/03/28 13:56:25;;;;;;;5.30;4.90;;;;;;;;;;4938051;28;20219;-73
2022/03/28 13:58:51;;;;;;;5.33;4.93;;;;;;;;;;4969194;28;20230;-73
2022/03/28 14:01:17;;;;;;;5.37;4.53;;;;;;;;;;4957474;28;20229;-74
2022/03/28 14:03:44;;;;;;;5.63;5.07;;;;;;;;;;4954355;28;20219;-74
2022/03/28 14:06:10;;;;;;;5.43;4.93;;;;;;;;;;4955361;28;20244;-74
2022/03/28 14:08:36;;;;;;;6.40;4.67;;;;;;;;;;4953400;28;20246;-75
2022/03/28 14:11:59;;;;;;;5.60;5.10;;;;;;;;;;4941835;28;20702;-75
2022/03/28 14:15:00;;;;;;;6.07;5.20;;;;;;;;;;4941310;28;20362;-75
2022/03/28 14:17:28;;;;;;;6.53;5.77;;;;;;;;;;4920980;28;20241;-73
2022/03/28 14:19:55;;;;;;;5.90;5.40;;;;;;;;;;4943942;28;20255;-73
2022/03/28 14:22:21;;;;;;;5.70;5.10;;;;;;;;;;4952340;28;20226;-74
2022/03/28 14:25:01;;;;;;;7.03;5.27;;;;;;;;;;4967956;28;20273;-76
2022/03/28 14:27:29;;;;;;;5.40;4.90;;;;;;;;;;4939257;28;20246;-77
2022/03/28 14:29:57;;;;;;;6.33;5.73;;;;;;;;;;4958918;28;20702;-75
2022/03/28 14:32:31;;;;;;;6.03;5.43;;;;;;;;;;4955601;28;20781;-75
2022/03/28 14:35:02;;;;;;;6.70;6.10;;;;;;;;;;4940787;28;20230;-75
2022/03/28 14:37:31;;;;;;;6.27;5.70;;;;;;;;;;4947378;28;20234;-75
2022/03/28 14:40:01;;;;;;;7.53;5.73;;;;;;;;;;4958644;28;20218;-75
2022/03/28 14:42:32;;;;;;;6.17;5.57;;;;;;;;;;4953701;28;20227;-76
2022/03/28 14:45:00;;;;;;;6.10;5.23;;;;;;;;;;4958809;28;20211;-75
2022/03/28 14:47:25;;;;;;;8.40;6.23;;;;;;;;;;4954417;28;20302;-75
2022/03/28 14:49:51;;;;;;;6.90;6.20;;;;;;;;;;4941455;28;20239;-76
2022/03/28 14:53:14;;;;;;;7.40;6.70;;;;;;;;;;4952278;28;20219;-76
2022/03/28 14:55:41;;;;;;;7.40;6.70;;;;;;;;;;4941366;28;20231;-76
2022/03/28 14:58:07;;;;;;;6.47;5.97;;;;;;;;;;4954847;28;20596;-78
2022/03/28 15:00:36;;;;;;;7.13;6.43;;;;;;;;;;4956505;28;20223;-75